Time;durP1;ratioP1;P1;durP2;ratioP2;P2;SDS_P1;SDS_P2;PMS_P1;PMS_P2;Temp;Humidity;BMP_temperature;BMP_pressure;BME280_temperature;BME280_humidity;BME280_pressure;Samples;Min_cycle;Max_cycle;Signal;HPM_P1;HPM_P2
2022/04/07 03:46:09;;;;;;;14.25;10.77;;;;;;;8.13;81.74;98747.69;6513345;27;20074;-89
2022/04/07 03:49:13;;;;;;;14.18;10.43;;;;;;;8.10;81.77;98750.75;6552251;27;34001;-88
2022/04/07 03:52:15;;;;;;;15.68;10.55;;;;;;;8.13;80.56;98738.78;6552418;27;34555;-89
2022/04/07 03:55:20;;;;;;;14.25;10.13;;;;;;;8.20;80.57;98731.59;6552407;27;34557;-88
2022/04/07 03:58:23;;;;;;;14.00;10.30;;;;;;;8.17;80.63;98722.09;6553746;27;34534;-88
2022/04/07 04:01:26;;;;;;;13.80;9.93;;;;;;;8.22;80.20;98726.03;6556624;27;35358;-88
2022/04/07 04:04:29;;;;;;;14.38;10.27;;;;;;;8.16;79.72;98730.34;6553242;27;33944;-89
2022/04/07 04:07:32;;;;;;;13.77;9.98;;;;;;;8.11;81.89;98730.97;6551898;27;34004;-87
2022/04/07 04:10:35;;;;;;;14.52;9.90;;;;;;;8.06;81.95;98730.72;6552198;27;34557;-87
2022/04/07 04:13:38;;;;;;;13.05;10.52;;;;;;;8.06;83.50;98727.22;6532142;27;32145;-87
2022/04/07 04:16:42;;;;;;;14.98;10.30;;;;;;;8.04;82.13;98730.09;6552241;27;33865;-87
2022/04/07 04:19:44;;;;;;;15.23;10.20;;;;;;;8.18;80.71;98722.91;6551668;27;34286;-91
2022/04/07 04:22:47;;;;;;;15.00;9.88;;;;;;;8.17;81.07;98722.09;6532836;27;32678;-91
2022/04/07 04:25:50;;;;;;;13.00;9.40;;;;;;;8.48;77.75;98723.44;6533661;27;33005;-90
2022/04/07 04:28:53;;;;;;;12.30;9.38;;;;;;;8.62;76.15;98725.06;6552448;27;34341;-92
2022/04/07 04:31:56;;;;;;;11.90;9.43;;;;;;;8.74;75.47;98730.63;6532866;27;32613;-86
2022/04/07 04:34:58;;;;;;;11.93;9.00;;;;;;;8.70;75.09;98721.37;6552157;27;34060;-86
2022/04/07 04:38:01;;;;;;;11.40;8.63;;;;;;;8.68;75.11;98720.75;6551745;27;33585;-86
2022/04/07 04:41:05;;;;;;;12.82;9.23;;;;;;;8.65;75.55;98720.31;6553399;27;34192;-85
2022/04/07 04:44:08;;;;;;;15.63;9.20;;;;;;;8.74;74.51;98717.22;6552243;27;35516;-86
2022/04/07 04:47:11;;;;;;;14.05;8.90;;;;;;;8.80;74.35;98721.78;6531553;27;32431;-86
2022/04/07 04:50:13;;;;;;;13.32;9.15;;;;;;;8.88;74.00;98722.59;6531456;27;32665;-87
2022/04/07 04:53:16;;;;;;;12.85;8.93;;;;;;;8.88;74.88;98731.47;6557803;27;33853;-87
2022/04/07 04:56:20;;;;;;;12.65;8.52;;;;;;;9.14;72.56;98717.19;6559402;27;34156;-86
2022/04/07 04:59:23;;;;;;;11.35;8.68;;;;;;;9.25;71.81;98713.87;6558265;27;34356;-87
2022/04/07 05:02:25;;;;;;;12.48;9.13;;;;;;;9.24;72.51;98711.38;6537272;27;32523;-86
2022/04/07 05:05:28;;;;;;;11.82;8.25;;;;;;;9.26;72.06;98707.47;6559171;27;33949;-87
2022/04/07 05:08:31;;;;;;;16.35;9.18;;;;;;;9.31;71.78;98713.03;6538122;27;33596;-88
2022/04/07 05:11:34;;;;;;;13.85;8.90;;;;;;;9.40;71.35;98724.38;6558355;27;34259;-87
2022/04/07 05:14:37;;;;;;;16.17;8.38;;;;;;;9.52;70.34;98724.53;6555017;27;34169;-87
2022/04/07 05:17:40;;;;;;;14.82;8.60;;;;;;;9.57;70.20;98722.06;6557717;27;33647;-87
2022/04/07 05:20:42;;;;;;;13.98;8.32;;;;;;;9.64;70.26;98725.53;6555948;27;34029;-87
2022/04/07 05:23:45;;;;;;;12.50;8.27;;;;;;;9.76;69.90;98717.62;6551943;27;34427;-87
2022/04/07 05:26:48;;;;;;;11.05;7.75;;;;;;;9.81;69.35;98709.75;6551468;27;33873;-87
2022/04/07 05:29:51;;;;;;;14.07;8.45;;;;;;;9.83;69.49;98718.44;6557636;27;33832;-87
2022/04/07 05:32:54;;;;;;;12.50;8.88;;;;;;;9.81;69.43;98715.13;6555399;27;34281;-87
2022/04/07 05:35:57;;;;;;;16.08;8.38;;;;;;;9.84;69.44;98719.25;6551404;27;34127;-87
2022/04/07 05:38:59;;;;;;;13.40;8.13;;;;;;;9.90;69.43;98723.78;6552602;27;33559;-87
2022/04/07 05:42:03;;;;;;;14.27;7.95;;;;;;;9.96;69.81;98733.66;6533629;27;32808;-87
2022/04/07 05:45:06;;;;;;;17.30;8.02;;;;;;;10.13;69.13;98726.75;6546619;27;172980;-87
2022/04/07 05:48:10;;;;;;;15.18;8.27;;;;;;;10.21;68.39;98734.56;6565116;27;33783;-87
2022/04/07 05:51:13;;;;;;;13.30;6.90;;;;;;;10.39;68.07;98738.44;6553217;27;34184;-87
2022/04/07 05:54:17;;;;;;;12.85;7.40;;;;;;;10.50;68.16;98737.75;6552380;27;33941;-87
2022/04/07 05:57:22;;;;;;;15.32;7.53;;;;;;;10.62;67.90;98741.38;6552996;27;33834;-87
2022/04/07 06:00:25;;;;;;;14.70;8.32;;;;;;;10.74;67.06;98736.09;6556938;27;34922;-87
2022/04/07 06:03:28;;;;;;;15.07;7.57;;;;;;;10.83;66.45;98733.97;6537818;27;32258;-87
2022/04/07 06:06:31;;;;;;;14.98;7.57;;;;;;;10.84;65.84;98736.41;6551302;27;33933;-87
2022/04/07 06:09:35;;;;;;;12.93;7.43;;;;;;;10.91;65.45;98739.09;6552373;27;34140;-87
2022/04/07 06:12:42;;;;;;;8.27;6.90;;;;;;;11.02;65.35;98742.91;6553253;27;34370;-86
2022/04/07 06:15:45;;;;;;;13.93;7.80;;;;;;;11.22;64.68;98735.47;6533171;27;32478;-87
2022/04/07 06:18:48;;;;;;;15.90;7.10;;;;;;;11.25;64.71;98751.19;6523569;27;33149;-87
2022/04/07 06:21:51;;;;;;;17.95;7.05;;;;;;;11.37;64.74;98753.16;6552341;27;34351;-87
2022/04/07 06:24:54;;;;;;;14.07;7.28;;;;;;;11.43;63.74;98744.97;6550784;27;34224;-87
2022/04/07 06:27:59;;;;;;;16.67;7.20;;;;;;;11.52;64.11;98750.91;6531021;27;33066;-86
2022/04/07 06:31:02;;;;;;;15.10;7.55;;;;;;;11.52;64.40;98759.00;6551371;27;34430;-87
2022/04/07 06:34:05;;;;;;;16.15;7.95;;;;;;;11.75;62.32;98761.03;6551441;27;34069;-87
2022/04/07 06:37:10;;;;;;;16.42;8.48;;;;;;;11.82;61.67;98769.88;6551960;27;33933;-87
2022/04/07 06:40:13;;;;;;;15.95;7.93;;;;;;;11.71;62.50;98774.13;6558361;27;33650;-86
2022/04/07 06:43:16;;;;;;;14.00;7.87;;;;;;;11.85;61.63;98771.28;6551355;27;35207;-90
2022/04/07 06:46:18;;;;;;;23.23;9.18;;;;;;;11.87;61.84;98777.28;6550898;27;34397;-91
2022/04/07 06:49:39;;;;;;;19.70;8.45;;;;;;;11.95;62.46;98775.13;6554070;27;33454;-91
2022/04/07 06:53:02;;;;;;;16.87;9.30;;;;;;;11.96;61.69;98776.78;6536687;27;33768;-87
2022/04/07 06:56:05;;;;;;;18.50;8.88;;;;;;;12.06;60.59;98776.25;6555145;27;34798;-87
2022/04/07 06:59:08;;;;;;;22.42;9.40;;;;;;;12.04;60.33;98783.72;6561304;27;34816;-87
2022/04/07 07:02:11;;;;;;;15.57;8.55;;;;;;;12.06;60.72;98792.44;6543055;27;33122;-87
2022/04/07 07:05:14;;;;;;;13.20;8.35;;;;;;;12.21;59.87;98794.72;6556148;27;34511;-86
2022/04/07 07:08:21;;;;;;;15.25;8.70;;;;;;;12.21;60.09;98795.53;6558254;27;33828;-85
2022/04/07 07:11:23;;;;;;;12.37;8.85;;;;;;;12.37;59.40;98804.91;6553096;27;34778;-86
2022/04/07 07:14:26;;;;;;;16.95;8.10;;;;;;;12.37;60.05;98801.34;6553339;27;34202;-87
2022/04/07 07:17:33;;;;;;;13.95;8.55;;;;;;;12.46;59.97;98800.84;6551880;27;34012;-86
2022/04/07 07:20:36;;;;;;;14.60;8.18;;;;;;;12.52;58.95;98803.66;6552420;27;35443;-86
2022/04/07 07:23:39;;;;;;;16.10;7.93;;;;;;;12.61;58.46;98805.00;6551515;27;34710;-86
2022/04/07 07:26:43;;;;;;;13.10;8.60;;;;;;;12.59;58.54;98804.37;6531695;27;32895;-86
2022/04/07 07:29:45;;;;;;;12.65;7.93;;;;;;;12.55;58.56;98798.63;6551376;27;33911;-86
2022/04/07 07:32:49;;;;;;;16.50;9.15;;;;;;;12.50;58.66;98800.38;6553913;27;35161;-87
2022/04/07 07:35:54;;;;;;;19.37;9.00;;;;;;;12.61;58.38;98803.13;6558124;27;34186;-87
2022/04/07 07:38:57;;;;;;;16.70;8.98;;;;;;;12.60;58.91;98803.31;6551720;27;33774;-87
2022/04/07 07:42:00;;;;;;;15.07;9.20;;;;;;;12.52;58.92;98800.94;6532284;27;33142;-86
2022/04/07 07:45:04;;;;;;;15.55;8.68;;;;;;;12.69;58.36;98807.34;6556439;27;34960;-86
2022/04/07 07:48:07;;;;;;;16.35;9.20;;;;;;;12.82;58.90;98803.66;6555247;27;34165;-87
2022/04/07 07:51:10;;;;;;;15.80;8.40;;;;;;;12.93;59.06;98814.47;6530562;27;33790;-87
2022/04/07 07:54:15;;;;;;;15.02;8.60;;;;;;;13.02;57.85;98824.94;6550487;27;34739;-87
2022/04/07 07:57:21;;;;;;;10.82;7.57;;;;;;;13.07;57.35;98812.37;6551469;27;33917;-87
2022/04/07 08:00:24;;;;;;;14.35;7.75;;;;;;;13.23;56.19;98815.47;6550239;27;34258;-86
2022/04/07 08:03:27;;;;;;;13.48;8.45;;;;;;;13.04;57.26;98817.41;6551622;27;34862;-87
2022/04/07 08:06:30;;;;;;;11.48;7.90;;;;;;;13.00;57.86;98816.25;6551065;27;33962;-87
2022/04/07 08:09:34;;;;;;;11.45;7.87;;;;;;;13.16;57.03;98812.84;6550808;27;34498;-86
2022/04/07 08:12:38;;;;;;;12.65;8.18;;;;;;;13.16;56.88;98813.69;6551460;27;34630;-86
2022/04/07 08:15:41;;;;;;;11.98;8.50;;;;;;;13.54;56.65;98822.44;6532177;27;32989;-86
2022/04/07 08:18:43;;;;;;;13.13;8.45;;;;;;;13.70;55.37;98813.63;6551897;27;35221;-87
2022/04/07 08:21:46;;;;;;;18.23;8.77;;;;;;;13.94;55.35;98810.88;6552391;27;34058;-86
2022/04/07 08:24:50;;;;;;;16.27;8.23;;;;;;;14.16;54.31;98811.91;6551669;27;33785;-90
2022/04/07 08:28:02;;;;;;;10.95;7.30;;;;;;;14.16;53.18;98819.19;6560990;27;35013;-91
2022/04/07 08:31:05;;;;;;;15.07;8.57;;;;;;;14.05;52.98;98815.44;6532686;27;32689;-87
2022/04/07 08:34:08;;;;;;;11.23;7.53;;;;;;;14.07;53.22;98821.44;6552591;27;34893;-87
2022/04/07 08:37:11;;;;;;;15.82;8.57;;;;;;;13.98;53.57;98830.97;6553433;27;34760;-87
2022/04/07 08:40:16;;;;;;;17.90;8.25;;;;;;;14.11;54.09;98832.63;6554696;27;34089;-87
2022/04/07 08:43:18;;;;;;;18.12;7.78;;;;;;;14.07;53.79;98824.16;6559048;27;33949;-86
2022/04/07 08:46:21;;;;;;;15.05;8.32;;;;;;;14.25;53.15;98828.59;6553231;27;34542;-86
2022/04/07 08:49:29;;;;;;;14.50;8.07;;;;;;;14.53;53.29;98822.38;6552433;27;33663;-87
2022/04/07 08:52:33;;;;;;;14.43;7.70;;;;;;;14.62;52.25;98826.34;6554919;27;33961;-86
2022/04/07 08:55:37;;;;;;;12.75;7.78;;;;;;;14.70;52.43;98823.25;6556300;27;35017;-87
2022/04/07 08:58:40;;;;;;;12.45;7.80;;;;;;;14.60;52.58;98812.25;6557872;27;34232;-86
2022/04/07 09:01:44;;;;;;;14.13;7.32;;;;;;;14.39;53.32;98811.00;6556423;27;34989;-86
2022/04/07 09:04:47;;;;;;;18.60;8.07;;;;;;;14.32;53.54;98801.38;6554494;27;34383;-86
2022/04/07 09:07:54;;;;;;;12.70;7.22;;;;;;;14.62;54.33;98793.03;6551549;27;34984;-87
2022/04/07 09:11:00;;;;;;;11.40;7.07;;;;;;;14.77;50.92;98795.19;6531667;27;32231;-87
2022/04/07 09:14:03;;;;;;;13.62;7.20;;;;;;;14.74;50.65;98791.91;6552603;27;34212;-87
2022/04/07 09:17:06;;;;;;;11.70;6.90;;;;;;;14.99;49.93;98798.81;6547762;27;33941;-87
2022/04/07 09:20:09;;;;;;;11.27;7.25;;;;;;;15.13;49.75;98792.03;6556713;27;33558;-86
2022/04/07 09:23:12;;;;;;;11.57;7.25;;;;;;;15.19;50.66;98787.50;6556592;27;35368;-87
2022/04/07 09:26:16;;;;;;;16.45;7.75;;;;;;;15.12;51.93;98781.41;6551457;27;35371;-87
2022/04/07 09:29:19;;;;;;;15.27;7.55;;;;;;;15.14;51.84;98771.97;6548131;27;33907;-87
2022/04/07 09:32:25;;;;;;;15.15;7.12;;;;;;;14.96;51.85;98781.16;6551303;27;34095;-87
2022/04/07 09:35:27;;;;;;;9.40;6.47;;;;;;;15.51;51.51;98785.00;6551540;27;33689;-87
2022/04/07 09:38:31;;;;;;;10.48;6.97;;;;;;;15.82;49.83;98785.44;6532672;27;33458;-87
2022/04/07 09:41:36;;;;;;;12.02;7.25;;;;;;;15.56;49.88;98782.37;6533180;27;32532;-87
2022/04/07 09:44:39;;;;;;;11.73;7.32;;;;;;;15.67;49.67;98782.50;6553064;27;34432;-86
2022/04/07 09:47:44;;;;;;;11.55;7.47;;;;;;;15.45;50.07;98772.44;6552401;27;34164;-87
2022/04/07 09:51:06;;;;;;;11.35;6.55;;;;;;;15.39;50.29;98776.16;6552491;27;33650;-87
2022/04/07 09:54:09;;;;;;;11.18;6.50;;;;;;;15.63;48.75;98774.06;6551725;27;35016;-87
2022/04/07 09:57:13;;;;;;;11.00;6.68;;;;;;;15.64;48.56;98781.94;6552475;27;33570;-87
2022/04/07 10:00:17;;;;;;;11.43;6.45;;;;;;;15.76;47.59;98778.31;6560325;27;34557;-87
2022/04/07 10:03:21;;;;;;;8.95;6.53;;;;;;;15.46;47.33;98776.78;6553250;27;34257;-87
2022/04/07 10:06:26;;;;;;;7.18;5.75;;;;;;;15.69;48.35;98774.97;6531844;27;32380;-87
2022/04/07 10:09:30;;;;;;;14.35;6.78;;;;;;;15.96;47.27;98772.34;6554074;27;34306;-88
2022/04/07 10:12:33;;;;;;;9.70;6.65;;;;;;;15.93;47.53;98765.50;6553221;27;34121;-87
2022/04/07 10:15:37;;;;;;;8.50;6.87;;;;;;;15.88;47.61;98762.72;6559879;27;33709;-87
2022/04/07 10:18:47;;;;;;;12.73;7.30;;;;;;;16.02;47.82;98771.31;6552934;27;33546;-87
2022/04/07 10:22:15;;;;;;;12.30;6.85;;;;;;;16.25;46.56;98765.63;6551675;27;33961;-87
2022/04/07 10:25:19;;;;;;;15.48;7.07;;;;;;;16.70;45.58;98769.06;6553800;27;34621;-87
2022/04/07 10:28:24;;;;;;;12.50;7.60;;;;;;;16.33;45.78;98764.38;6553635;27;34021;-87
2022/04/07 10:31:28;;;;;;;9.75;7.53;;;;;;;16.41;46.74;98763.06;6556052;27;34544;-88
2022/04/07 10:34:34;;;;;;;10.20;6.70;;;;;;;17.22;44.63;98765.75;6553527;27;34053;-87
2022/04/07 10:37:45;;;;;;;10.48;7.07;;;;;;;18.17;43.67;98745.88;6555943;27;34074;-87
2022/04/07 10:40:49;;;;;;;14.60;7.18;;;;;;;18.57;42.64;98747.84;6556976;27;34401;-87
2022/04/07 10:44:08;;;;;;;9.50;7.40;;;;;;;18.34;42.41;98744.56;6555532;27;34807;-87
2022/04/07 10:47:11;;;;;;;17.65;7.30;;;;;;;18.08;42.24;98740.12;6558062;27;34183;-87
2022/04/07 10:50:18;;;;;;;14.32;7.20;;;;;;;18.46;42.72;98733.41;6558273;27;34073;-87
2022/04/07 10:53:33;;;;;;;11.05;8.05;;;;;;;18.65;42.63;98736.44;6539376;27;32612;-86
2022/04/07 10:56:36;;;;;;;12.95;7.78;;;;;;;18.16;41.68;98723.25;6558229;27;34500;-87
2022/04/07 10:59:40;;;;;;;11.43;7.07;;;;;;;18.45;42.31;98714.59;6535250;27;32790;-87
2022/04/07 11:02:43;;;;;;;10.93;6.95;;;;;;;18.52;40.90;98707.81;6552569;27;34143;-87
2022/04/07 11:06:00;;;;;;;8.35;6.45;;;;;;;18.76;40.81;98704.56;6524411;27;32442;-87
2022/04/07 11:09:17;;;;;;;10.48;6.82;;;;;;;19.51;40.00;98696.56;6561483;27;35640;-86
2022/04/07 11:12:32;;;;;;;12.07;6.70;;;;;;;19.52;38.36;98700.91;6552625;27;34558;-90
2022/04/07 11:15:48;;;;;;;12.27;7.35;;;;;;;19.63;38.99;98707.19;6553518;27;33799;-86
2022/04/07 11:19:37;;;;;;;9.40;6.75;;;;;;;19.77;37.92;98708.22;6551548;27;33958;-86
2022/04/07 11:22:55;;;;;;;8.40;5.78;;;;;;;20.74;37.01;98698.69;6550006;27;34509;-87
2022/04/07 11:26:09;;;;;;;11.37;6.37;;;;;;;21.34;34.83;98691.00;6559633;27;33723;-86
2022/04/07 11:29:12;;;;;;;9.88;6.30;;;;;;;20.57;35.56;98694.44;6567877;27;33796;-86
2022/04/07 11:32:15;;;;;;;8.63;5.93;;;;;;;20.57;36.75;98699.09;6569532;27;35439;-86
2022/04/07 11:35:18;;;;;;;10.13;6.28;;;;;;;20.60;36.77;98693.88;6570600;27;35233;-85
2022/04/07 11:38:21;;;;;;;8.48;6.70;;;;;;;20.51;35.56;98692.00;6554999;27;33894;-85
2022/04/07 11:41:32;;;;;;;9.85;6.43;;;;;;;20.01;36.65;98689.28;6551763;27;34231;-85
2022/04/07 11:44:35;;;;;;;10.68;6.15;;;;;;;20.75;34.98;98687.44;6553198;27;33621;-86
2022/04/07 11:47:37;;;;;;;9.27;5.93;;;;;;;21.44;34.68;98677.25;6537211;27;32312;-85
2022/04/07 11:50:40;;;;;;;10.60;6.60;;;;;;;22.01;32.81;98671.88;6556819;27;34935;-85
2022/04/07 11:53:52;;;;;;;9.05;6.60;;;;;;;22.00;32.88;98661.22;6552297;27;33702;-86
2022/04/07 11:56:54;;;;;;;7.80;5.20;;;;;;;23.49;30.77;98652.22;6552185;27;34832;-87
2022/04/07 12:00:04;;;;;;;10.18;5.75;;;;;;;24.92;28.31;98659.97;6553147;27;35379;-87
2022/04/07 12:03:19;;;;;;;9.20;5.32;;;;;;;24.49;28.79;98655.00;6539648;27;33623;-87
2022/04/07 12:06:28;;;;;;;9.00;5.15;;;;;;;24.32;28.74;98649.34;6551848;27;34056;-86
2022/04/07 12:09:31;;;;;;;8.10;4.95;;;;;;;24.26;29.48;98645.09;6552891;27;34224;-87
2022/04/07 12:12:34;;;;;;;9.18;4.82;;;;;;;24.52;28.11;98646.13;6553305;27;34611;-87
2022/04/07 12:15:38;;;;;;;11.38;5.10;;;;;;;24.87;28.25;98646.38;6534758;27;32446;-88
2022/04/07 12:18:41;;;;;;;7.65;4.87;;;;;;;26.94;25.18;98649.09;6558703;27;34705;-86
2022/04/07 12:21:57;;;;;;;11.43;4.70;;;;;;;26.06;25.39;98636.47;6561016;27;33865;-88
2022/04/07 12:25:06;;;;;;;5.55;4.25;;;;;;;25.65;26.21;98632.13;6566370;27;34021;-88
2022/04/07 12:28:20;;;;;;;6.85;4.57;;;;;;;25.75;25.75;98635.41;6558691;27;33769;-88
2022/04/07 12:31:23;;;;;;;6.90;4.50;;;;;;;25.71;27.26;98625.34;6564717;27;33616;-88
2022/04/07 12:34:27;;;;;;;4.07;3.53;;;;;;;26.02;25.13;98617.81;6562457;27;35584;-87
2022/04/07 12:37:43;;;;;;;4.03;3.42;;;;;;;27.32;23.37;98616.00;6560645;27;34978;-88
2022/04/07 12:40:46;;;;;;;5.07;3.70;;;;;;;26.40;23.52;98610.84;6547835;27;34322;-88
2022/04/07 12:43:50;;;;;;;5.50;4.00;;;;;;;26.45;24.10;98608.72;6556628;27;35233;-88
2022/04/07 12:46:56;;;;;;;9.35;5.05;;;;;;;27.75;24.18;98607.47;6557159;27;35466;-87
2022/04/07 12:50:02;;;;;;;6.57;4.65;;;;;;;27.39;23.90;98610.78;6558568;27;35436;-88
2022/04/07 12:53:34;;;;;;;7.32;4.62;;;;;;;28.08;22.18;98605.97;6558535;27;34035;-86
2022/04/07 12:56:38;;;;;;;7.62;4.32;;;;;;;29.52;22.29;98607.13;6537987;27;32776;-88
2022/04/07 12:59:54;;;;;;;8.68;4.82;;;;;;;30.23;20.84;98600.25;6558584;27;33140;-88
2022/04/07 13:03:01;;;;;;;7.70;5.40;;;;;;;30.72;19.88;98586.94;6547928;27;33324;-91
2022/04/07 13:06:11;;;;;;;6.47;5.03;;;;;;;30.58;20.36;98586.56;6558263;27;34192;-87
2022/04/07 13:09:18;;;;;;;5.82;4.37;;;;;;;31.97;19.52;98585.66;6552661;27;35240;-88
2022/04/07 13:12:21;;;;;;;8.40;5.22;;;;;;;32.73;18.56;98578.50;6563104;27;33747;-88
2022/04/07 13:15:24;;;;;;;8.95;4.70;;;;;;;33.54;17.27;98577.50;6562984;27;32351;-87
2022/04/07 13:18:27;;;;;;;7.93;4.85;;;;;;;33.00;17.17;98570.25;6562462;27;32579;-87
2022/04/07 13:21:33;;;;;;;7.95;4.80;;;;;;;34.04;17.22;98572.66;6587580;27;35145;-87
2022/04/07 13:24:36;;;;;;;6.15;4.47;;;;;;;33.84;17.36;98573.94;6594964;27;34025;-88
2022/04/07 13:27:40;;;;;;;8.57;4.90;;;;;;;34.36;16.57;98574.25;6582692;27;35699;-88
2022/04/07 13:30:43;;;;;;;6.85;4.70;;;;;;;34.50;16.14;98571.62;6582879;27;35340;-86
2022/04/07 13:33:46;;;;;;;7.25;4.80;;;;;;;34.76;15.89;98568.72;6574162;27;32350;-88
2022/04/07 13:36:49;;;;;;;12.25;4.75;;;;;;;34.18;16.92;98565.66;6592603;26;35530;-88
2022/04/07 13:39:52;;;;;;;5.87;4.32;;;;;;;33.47;16.93;98557.06;6567391;27;32431;-87
2022/04/07 13:43:19;;;;;;;5.37;4.60;;;;;;;34.38;16.28;98552.31;6561132;27;32489;-88
2022/04/07 13:46:22;;;;;;;10.98;4.45;;;;;;;35.08;15.01;98542.28;6561117;27;32547;-89
2022/04/07 13:49:25;;;;;;;6.22;4.12;;;;;;;35.19;15.89;98532.00;6581053;27;33740;-88
2022/04/07 13:52:28;;;;;;;7.35;4.30;;;;;;;34.18;16.12;98534.94;6580652;27;35388;-88
2022/04/07 13:55:32;;;;;;;5.82;3.97;;;;;;;35.04;15.88;98527.41;6579078;27;35078;-88
2022/04/07 13:58:35;;;;;;;6.93;4.10;;;;;;;34.14;15.82;98515.34;6575595;27;32901;-88
2022/04/07 14:01:38;;;;;;;8.63;3.80;;;;;;;34.25;16.55;98532.19;6609614;27;34861;-89
2022/04/07 14:04:41;;;;;;;6.00;4.10;;;;;;;34.42;15.88;98516.84;6589934;27;32285;-88
2022/04/07 14:07:44;;;;;;;4.62;3.78;;;;;;;33.77;16.54;98518.03;6610108;27;33940;-88
2022/04/07 14:10:50;;;;;;;4.45;3.90;;;;;;;33.48;16.53;98511.22;6607769;27;34099;-88
2022/04/07 14:13:52;;;;;;;6.50;3.72;;;;;;;33.88;16.89;98512.59;6608393;27;34470;-88
2022/04/07 14:16:55;;;;;;;7.03;3.90;;;;;;;34.16;16.36;98496.19;6607988;27;33545;-87
2022/04/07 14:19:58;;;;;;;6.20;3.80;;;;;;;33.00;17.41;98489.38;6608501;27;33693;-88
2022/04/07 14:23:01;;;;;;;6.95;3.55;;;;;;;30.69;19.34;98487.66;6606364;27;34177;-90
2022/04/07 14:26:05;;;;;;;4.97;3.83;;;;;;;29.34;21.84;98473.50;6608306;27;33674;-89
2022/04/07 14:29:08;;;;;;;9.20;3.87;;;;;;;29.45;22.34;98460.75;6607491;27;35128;-90
2022/04/07 14:32:11;;;;;;;5.05;3.53;;;;;;;29.76;21.15;98464.88;6607024;27;33819;-89
2022/04/07 14:35:15;;;;;;;4.72;3.58;;;;;;;29.43;21.09;98463.09;6591268;27;32368;-89
2022/04/07 14:38:17;;;;;;;6.60;4.60;;;;;;;28.04;23.16;98473.06;6612112;27;35324;-89
2022/04/07 14:41:20;;;;;;;7.70;4.03;;;;;;;28.02;22.73;98469.81;6589125;27;32529;-89
2022/04/07 14:44:23;;;;;;;5.45;3.90;;;;;;;28.11;23.20;98467.81;6610601;27;34642;-89
2022/04/07 14:47:26;;;;;;;3.78;3.47;;;;;;;27.64;23.56;98459.72;6589370;27;32828;-91
2022/04/07 14:50:29;;;;;;;6.55;4.37;;;;;;;27.60;24.57;98456.03;6587769;27;32304;-90
2022/04/07 14:53:32;;;;;;;6.07;4.45;;;;;;;26.65;24.48;98454.63;6621360;27;33724;-90
2022/04/07 14:56:35;;;;;;;4.65;4.20;;;;;;;24.73;27.18;98456.53;6613430;27;34344;-89
2022/04/07 14:59:41;;;;;;;5.80;4.35;;;;;;;23.37;29.00;98446.75;6610338;27;34047;-89
2022/04/07 15:02:58;;;;;;;5.55;4.20;;;;;;;22.29;30.86;98439.88;6616038;27;33879;-88
2022/04/07 15:06:07;;;;;;;5.12;4.37;;;;;;;21.40;32.59;98438.00;6610045;27;34283;-89
2022/04/07 15:09:10;;;;;;;7.62;4.37;;;;;;;20.99;33.41;98440.47;6591234;27;31857;-88
2022/04/07 15:12:13;;;;;;;5.07;3.55;;;;;;;20.57;34.43;98434.69;6606685;27;35472;-88
2022/04/07 15:15:16;;;;;;;6.45;4.30;;;;;;;20.28;35.73;98437.44;6609542;27;33969;-88
2022/04/07 15:18:19;;;;;;;7.10;4.25;;;;;;;19.96;37.35;98440.75;6590257;27;32531;-88
2022/04/07 15:21:21;;;;;;;5.75;4.05;;;;;;;19.62;36.73;98454.37;6587718;27;32630;-88
2022/04/07 15:24:24;;;;;;;6.12;4.12;;;;;;;19.44;38.19;98448.47;6606803;27;33624;-88
2022/04/07 15:27:27;;;;;;;6.60;4.62;;;;;;;19.15;38.29;98451.13;6587233;27;33351;-88
2022/04/07 15:30:30;;;;;;;7.82;4.50;;;;;;;19.17;38.30;98459.84;6607346;27;34185;-88
2022/04/07 15:33:34;;;;;;;6.65;4.05;;;;;;;18.95;38.65;98470.31;6607346;27;33964;-88
2022/04/07 15:36:38;;;;;;;5.60;4.45;;;;;;;18.89;40.41;98468.69;6587844;27;32626;-87
2022/04/07 15:39:40;;;;;;;10.38;4.15;;;;;;;18.70;40.87;98465.75;6606954;27;33618;-88
2022/04/07 15:42:43;;;;;;;7.07;4.43;;;;;;;18.47;41.89;98465.25;6607481;27;34405;-87
2022/04/07 15:45:46;;;;;;;6.62;4.22;;;;;;;18.31;42.48;98455.47;6607932;27;34692;-87
2022/04/07 15:48:49;;;;;;;6.90;4.40;;;;;;;18.23;40.48;98456.88;6613394;27;34517;-87
2022/04/07 15:51:52;;;;;;;5.57;4.00;;;;;;;18.17;42.15;98455.25;6587452;27;33056;-87
2022/04/07 15:54:54;;;;;;;5.20;4.30;;;;;;;18.15;42.15;98456.59;6587268;27;32601;-87
2022/04/07 15:57:57;;;;;;;6.35;3.95;;;;;;;18.17;40.82;98462.59;6586655;27;33844;-88
